sensor_id;sensor_type;location;lat;lon;timestamp;pressure;altitude;pressure_sealevel;temperature;humidity
16664;BME280;8445;51.270;9.434;2023-01-28T00:01:09;100487.97;;;1.96;73.18
16664;BME280;8445;51.270;9.434;2023-01-28T00:03:35;100500.31;;;1.87;73.14
16664;BME280;8445;51.270;9.434;2023-01-28T00:06:05;100490.00;;;1.81;73.36
16664;BME280;8445;51.270;9.434;2023-01-28T00:08:31;100491.78;;;1.79;73.87
16664;BME280;8445;51.270;9.434;2023-01-28T00:11:02;100495.28;;;1.78;73.78
16664;BME280;8445;51.270;9.434;2023-01-28T00:13:28;100485.03;;;1.72;73.49
16664;BME280;8445;51.270;9.434;2023-01-28T00:15:59;100486.81;;;1.70;73.67
16664;BME280;8445;51.270;9.434;2023-01-28T00:18:26;100486.94;;;1.63;73.69
16664;BME280;8445;51.270;9.434;2023-01-28T00:21:01;100488.84;;;1.55;74.14
16664;BME280;8445;51.270;9.434;2023-01-28T00:23:28;100488.97;;;1.49;73.48
16664;BME280;8445;51.270;9.434;2023-01-28T00:25:57;100474.44;;;1.37;73.76
16664;BME280;8445;51.270;9.434;2023-01-28T00:28:23;100479.00;;;1.24;73.76
16664;BME280;8445;51.270;9.434;2023-01-28T00:30:48;100470.50;;;1.16;74.04
16664;BME280;8445;51.270;9.434;2023-01-28T00:33:14;100474.22;;;1.02;73.78
16664;BME280;8445;51.270;9.434;2023-01-28T00:35:39;100470.06;;;0.92;73.26
16664;BME280;8445;51.270;9.434;2023-01-28T00:38:05;100470.28;;;0.80;73.36
16664;BME280;8445;51.270;9.434;2023-01-28T00:40:31;100477.47;;;0.67;73.13
16664;BME280;8445;51.270;9.434;2023-01-28T00:42:56;100475.84;;;0.59;73.35
16664;BME280;8445;51.270;9.434;2023-01-28T00:45:22;100473.41;;;0.52;73.24
16664;BME280;8445;51.270;9.434;2023-01-28T00:47:48;100476.78;;;0.57;73.69
16664;BME280;8445;51.270;9.434;2023-01-28T00:50:14;100472.41;;;0.57;73.47
16664;BME280;8445;51.270;9.434;2023-01-28T00:52:39;100471.47;;;0.62;73.90
16664;BME280;8445;51.270;9.434;2023-01-28T00:55:06;100480.19;;;0.59;73.66
16664;BME280;8445;51.270;9.434;2023-01-28T00:57:31;100468.09;;;0.58;74.19
16664;BME280;8445;51.270;9.434;2023-01-28T00:59:57;100475.06;;;0.56;74.51
16664;BME280;8445;51.270;9.434;2023-01-28T01:02:22;100476.69;;;0.60;74.64
16664;BME280;8445;51.270;9.434;2023-01-28T01:04:48;100472.31;;;0.64;74.15
16664;BME280;8445;51.270;9.434;2023-01-28T01:07:27;100474.03;;;0.63;73.92
16664;BME280;8445;51.270;9.434;2023-01-28T01:10:16;100476.75;;;0.58;74.31
16664;BME280;8445;51.270;9.434;2023-01-28T01:12:44;100468.94;;;0.58;74.08
16664;BME280;8445;51.270;9.434;2023-01-28T01:15:10;100474.88;;;0.65;74.09
16664;BME280;8445;51.270;9.434;2023-01-28T01:17:40;100475.91;;;0.58;74.21
16664;BME280;8445;51.270;9.434;2023-01-28T01:20:10;100477.56;;;0.61;74.20
16664;BME280;8445;51.270;9.434;2023-01-28T01:22:37;100474.91;;;0.64;74.49
16664;BME280;8445;51.270;9.434;2023-01-28T01:25:03;100476.69;;;0.62;74.28
16664;BME280;8445;51.270;9.434;2023-01-28T01:27:30;100471.50;;;0.60;74.15
16664;BME280;8445;51.270;9.434;2023-01-28T01:29:57;100473.28;;;0.58;74.13
16664;BME280;8445;51.270;9.434;2023-01-28T01:32:32;100484.59;;;0.57;74.43
16664;BME280;8445;51.270;9.434;2023-01-28T01:34:59;100475.13;;;0.53;74.28
16664;BME280;8445;51.270;9.434;2023-01-28T01:37:25;100482.13;;;0.48;74.17
16664;BME280;8445;51.270;9.434;2023-01-28T01:39:51;100483.13;;;0.40;73.92
16664;BME280;8445;51.270;9.434;2023-01-28T01:42:16;100484.16;;;0.30;74.50
16664;BME280;8445;51.270;9.434;2023-01-28T01:47:37;100485.06;;;0.26;74.97
16664;BME280;8445;51.270;9.434;2023-01-28T01:52:57;100488.56;;;0.26;74.18
16664;BME280;8445;51.270;9.434;2023-01-28T01:55:26;100488.59;;;0.23;74.85
16664;BME280;8445;51.270;9.434;2023-01-28T01:57:57;100489.44;;;0.24;74.94
16664;BME280;8445;51.270;9.434;2023-01-28T02:00:26;100483.44;;;0.20;75.32
16664;BME280;8445;51.270;9.434;2023-01-28T02:02:52;100485.91;;;0.28;75.21
16664;BME280;8445;51.270;9.434;2023-01-28T02:05:20;100487.63;;;0.29;75.58
16664;BME280;8445;51.270;9.434;2023-01-28T02:07:47;100481.50;;;0.32;75.57
16664;BME280;8445;51.270;9.434;2023-01-28T02:10:16;100490.03;;;0.41;75.60
16664;BME280;8445;51.270;9.434;2023-01-28T02:12:45;100496.94;;;0.46;75.76
16664;BME280;8445;51.270;9.434;2023-01-28T02:15:17;100492.47;;;0.52;75.75
16664;BME280;8445;51.270;9.434;2023-01-28T02:17:44;100488.91;;;0.58;75.53
16664;BME280;8445;51.270;9.434;2023-01-28T02:20:12;100499.28;;;0.59;75.45
16664;BME280;8445;51.270;9.434;2023-01-28T02:26:14;100504.31;;;0.70;76.26
16664;BME280;8445;51.270;9.434;2023-01-28T02:28:48;100508.63;;;0.71;76.09
16664;BME280;8445;51.270;9.434;2023-01-28T02:31:25;100510.28;;;0.77;76.00
16664;BME280;8445;51.270;9.434;2023-01-28T02:36:56;100522.38;;;0.81;75.19
16664;BME280;8445;51.270;9.434;2023-01-28T02:39:28;100517.16;;;0.81;75.46
16664;BME280;8445;51.270;9.434;2023-01-28T02:42:07;100517.97;;;0.85;75.48
16664;BME280;8445;51.270;9.434;2023-01-28T02:44:36;100511.91;;;0.84;75.62
16664;BME280;8445;51.270;9.434;2023-01-28T02:47:04;100516.97;;;0.91;74.77
16664;BME280;8445;51.270;9.434;2023-01-28T02:49:51;100527.44;;;0.89;75.29
16664;BME280;8445;51.270;9.434;2023-01-28T02:52:24;100523.06;;;0.91;74.88
16664;BME280;8445;51.270;9.434;2023-01-28T02:55:14;100526.66;;;0.84;75.15
16664;BME280;8445;51.270;9.434;2023-01-28T02:57:55;100538.75;;;0.88;75.37
16664;BME280;8445;51.270;9.434;2023-01-28T03:00:28;100541.31;;;0.91;75.42
16664;BME280;8445;51.270;9.434;2023-01-28T03:03:14;100541.25;;;0.93;75.03
16664;BME280;8445;51.270;9.434;2023-01-28T03:05:51;100533.50;;;0.91;74.66
16664;BME280;8445;51.270;9.434;2023-01-28T03:08:55;100535.22;;;0.92;75.06
16664;BME280;8445;51.270;9.434;2023-01-28T03:11:43;100538.69;;;0.91;75.09
16664;BME280;8445;51.270;9.434;2023-01-28T03:14:31;100530.78;;;0.96;74.61
16664;BME280;8445;51.270;9.434;2023-01-28T03:17:46;100536.81;;;0.99;74.67
16664;BME280;8445;51.270;9.434;2023-01-28T03:21:08;100535.09;;;0.98;74.64
16664;BME280;8445;51.270;9.434;2023-01-28T03:24:16;100536.00;;;0.97;74.66
16664;BME280;8445;51.270;9.434;2023-01-28T03:30:13;100534.28;;;0.95;74.89
16664;BME280;8445;51.270;9.434;2023-01-28T03:33:03;100536.03;;;0.94;75.00
16664;BME280;8445;51.270;9.434;2023-01-28T03:35:48;100542.16;;;0.92;74.80
16664;BME280;8445;51.270;9.434;2023-01-28T03:38:33;100543.03;;;0.91;74.87
16664;BME280;8445;51.270;9.434;2023-01-28T03:41:09;100546.56;;;0.88;75.33
16664;BME280;8445;51.270;9.434;2023-01-28T03:43:35;100545.56;;;0.95;74.91
16664;BME280;8445;51.270;9.434;2023-01-28T03:46:02;100545.53;;;0.97;75.26
16664;BME280;8445;51.270;9.434;2023-01-28T03:48:28;100550.75;;;0.98;75.45
16664;BME280;8445;51.270;9.434;2023-01-28T03:50:55;100549.06;;;0.94;74.93
16664;BME280;8445;51.270;9.434;2023-01-28T03:53:22;100552.50;;;0.96;74.88
16664;BME280;8445;51.270;9.434;2023-01-28T03:55:50;100551.63;;;0.97;74.91
16664;BME280;8445;51.270;9.434;2023-01-28T03:58:16;100557.72;;;0.96;74.65
16664;BME280;8445;51.270;9.434;2023-01-28T04:00:43;100554.22;;;0.97;75.05
16664;BME280;8445;51.270;9.434;2023-01-28T04:03:15;100556.00;;;0.95;74.81
16664;BME280;8445;51.270;9.434;2023-01-28T04:06:01;100550.75;;;0.98;74.71
16664;BME280;8445;51.270;9.434;2023-01-28T04:08:47;100548.13;;;0.98;74.75
16664;BME280;8445;51.270;9.434;2023-01-28T04:11:43;100547.28;;;0.96;75.09
16664;BME280;8445;51.270;9.434;2023-01-28T04:14:13;100547.25;;;0.98;74.96
16664;BME280;8445;51.270;9.434;2023-01-28T04:16:47;100546.41;;;0.97;74.71
16664;BME280;8445;51.270;9.434;2023-01-28T04:19:13;100552.50;;;0.96;75.09
16664;BME280;8445;51.270;9.434;2023-01-28T04:21:40;100555.91;;;1.00;75.13
16664;BME280;8445;51.270;9.434;2023-01-28T04:24:06;100553.31;;;1.00;74.53
16664;BME280;8445;51.270;9.434;2023-01-28T04:26:33;100557.63;;;1.02;74.68
16664;BME280;8445;51.270;9.434;2023-01-28T04:28:58;100552.41;;;1.02;74.25
16664;BME280;8445;51.270;9.434;2023-01-28T04:31:24;100553.28;;;1.01;74.13
16664;BME280;8445;51.270;9.434;2023-01-28T04:34:11;100555.03;;;1.01;74.23
16664;BME280;8445;51.270;9.434;2023-01-28T04:37:01;100549.75;;;1.04;74.65
16664;BME280;8445;51.270;9.434;2023-01-28T04:39:48;100550.56;;;1.08;74.48
16664;BME280;8445;51.270;9.434;2023-01-28T04:42:37;100553.09;;;1.12;74.21
16664;BME280;8445;51.270;9.434;2023-01-28T04:45:25;100548.75;;;1.13;74.32
16664;BME280;8445;51.270;9.434;2023-01-28T04:48:01;100557.47;;;1.12;74.72
16664;BME280;8445;51.270;9.434;2023-01-28T04:51:06;100553.13;;;1.11;74.79
16664;BME280;8445;51.270;9.434;2023-01-28T04:53:52;100553.91;;;1.16;74.41
16664;BME280;8445;51.270;9.434;2023-01-28T04:56:32;100551.34;;;1.13;74.48
16664;BME280;8445;51.270;9.434;2023-01-28T04:58:59;100547.03;;;1.12;74.66
16664;BME280;8445;51.270;9.434;2023-01-28T05:01:27;100553.06;;;1.14;74.90
16664;BME280;8445;51.270;9.434;2023-01-28T05:03:52;100553.16;;;1.09;74.70
16664;BME280;8445;51.270;9.434;2023-01-28T05:06:24;100554.03;;;1.10;75.16
16664;BME280;8445;51.270;9.434;2023-01-28T05:08:53;100558.28;;;1.14;75.07
16664;BME280;8445;51.270;9.434;2023-01-28T05:11:18;100554.84;;;1.12;74.65
16664;BME280;8445;51.270;9.434;2023-01-28T05:13:47;100563.50;;;1.12;74.69
16664;BME280;8445;51.270;9.434;2023-01-28T05:16:13;100557.34;;;1.16;74.39
16664;BME280;8445;51.270;9.434;2023-01-28T05:18:39;100564.34;;;1.16;75.04
16664;BME280;8445;51.270;9.434;2023-01-28T05:21:10;100558.19;;;1.18;74.74
16664;BME280;8445;51.270;9.434;2023-01-28T05:23:37;100569.47;;;1.19;74.65
16664;BME280;8445;51.270;9.434;2023-01-28T05:26:03;100562.53;;;1.18;74.52
16664;BME280;8445;51.270;9.434;2023-01-28T05:28:29;100566.09;;;1.14;73.38
16664;BME280;8445;51.270;9.434;2023-01-28T05:30:56;100569.47;;;1.19;73.69
16664;BME280;8445;51.270;9.434;2023-01-28T05:33:21;100569.50;;;1.17;73.91
16664;BME280;8445;51.270;9.434;2023-01-28T05:35:47;100573.94;;;1.14;73.24
16664;BME280;8445;51.270;9.434;2023-01-28T05:38:15;100564.38;;;1.13;72.48
16664;BME280;8445;51.270;9.434;2023-01-28T05:40:40;100563.47;;;1.15;73.00
16664;BME280;8445;51.270;9.434;2023-01-28T05:43:06;100557.31;;;1.18;72.49
16664;BME280;8445;51.270;9.434;2023-01-28T05:45:58;100562.47;;;1.21;72.66
16664;BME280;8445;51.270;9.434;2023-01-28T05:48:32;100569.44;;;1.21;72.72
16664;BME280;8445;51.270;9.434;2023-01-28T05:51:16;100562.47;;;1.21;72.61
16664;BME280;8445;51.270;9.434;2023-01-28T05:53:45;100569.47;;;1.19;72.97
16664;BME280;8445;51.270;9.434;2023-01-28T05:56:11;100579.94;;;1.17;73.18
16664;BME280;8445;51.270;9.434;2023-01-28T05:58:37;100577.38;;;1.14;73.38
16664;BME280;8445;51.270;9.434;2023-01-28T06:01:03;100573.88;;;1.15;73.13
16664;BME280;8445;51.270;9.434;2023-01-28T06:03:39;100577.31;;;1.17;72.38
16664;BME280;8445;51.270;9.434;2023-01-28T06:06:05;100585.25;;;1.13;72.22
16664;BME280;8445;51.270;9.434;2023-01-28T06:08:30;100580.88;;;1.13;72.32
16664;BME280;8445;51.270;9.434;2023-01-28T06:10:57;100581.75;;;1.14;71.99
16664;BME280;8445;51.270;9.434;2023-01-28T06:13:23;100588.72;;;1.12;72.01
16664;BME280;8445;51.270;9.434;2023-01-28T06:16:07;100581.84;;;1.08;72.22
16664;BME280;8445;51.270;9.434;2023-01-28T06:18:38;100586.19;;;1.09;72.19
16664;BME280;8445;51.270;9.434;2023-01-28T06:21:05;100589.78;;;1.01;72.65
16664;BME280;8445;51.270;9.434;2023-01-28T06:23:31;100586.28;;;1.02;72.53
16664;BME280;8445;51.270;9.434;2023-01-28T06:25:56;100592.31;;;1.05;72.33
16664;BME280;8445;51.270;9.434;2023-01-28T06:28:23;100601.88;;;1.06;72.88
16664;BME280;8445;51.270;9.434;2023-01-28T06:30:50;100591.44;;;1.06;72.68
16664;BME280;8445;51.270;9.434;2023-01-28T06:33:17;100600.97;;;1.07;72.64
16664;BME280;8445;51.270;9.434;2023-01-28T06:35:42;100595.75;;;1.07;72.56
16664;BME280;8445;51.270;9.434;2023-01-28T06:38:09;100607.97;;;1.05;72.88
16664;BME280;8445;51.270;9.434;2023-01-28T06:40:35;100599.34;;;0.99;71.96
16664;BME280;8445;51.270;9.434;2023-01-28T06:43:00;100609.00;;;0.93;71.43
16664;BME280;8445;51.270;9.434;2023-01-28T06:45:26;100612.53;;;0.88;70.99
16664;BME280;8445;51.270;9.434;2023-01-28T06:47:51;100622.13;;;0.88;72.05
16664;BME280;8445;51.270;9.434;2023-01-28T06:50:16;100626.50;;;0.86;71.50
16664;BME280;8445;51.270;9.434;2023-01-28T06:52:42;100630.00;;;0.83;70.26
16664;BME280;8445;51.270;9.434;2023-01-28T06:55:08;100626.59;;;0.80;70.24
16664;BME280;8445;51.270;9.434;2023-01-28T06:57:37;100624.75;;;0.86;70.40
16664;BME280;8445;51.270;9.434;2023-01-28T07:00:05;100626.53;;;0.84;70.53
16664;BME280;8445;51.270;9.434;2023-01-28T07:02:31;100629.97;;;0.86;70.68
16664;BME280;8445;51.270;9.434;2023-01-28T07:04:56;100628.31;;;0.81;70.48
16664;BME280;8445;51.270;9.434;2023-01-28T07:07:22;100636.91;;;0.86;71.11
16664;BME280;8445;51.270;9.434;2023-01-28T07:09:47;100635.28;;;0.80;70.39
16664;BME280;8445;51.270;9.434;2023-01-28T07:12:13;100637.03;;;0.78;70.59
16664;BME280;8445;51.270;9.434;2023-01-28T07:14:38;100635.22;;;0.83;70.34
16664;BME280;8445;51.270;9.434;2023-01-28T07:17:03;100642.28;;;0.75;70.48
16664;BME280;8445;51.270;9.434;2023-01-28T07:19:29;100641.31;;;0.81;70.11
16664;BME280;8445;51.270;9.434;2023-01-28T07:21:57;100643.94;;;0.81;70.74
16664;BME280;8445;51.270;9.434;2023-01-28T07:24:25;100633.47;;;0.84;70.79
16664;BME280;8445;51.270;9.434;2023-01-28T07:26:58;100634.34;;;0.84;70.62
16664;BME280;8445;51.270;9.434;2023-01-28T07:29:26;100639.47;;;0.89;70.65
16664;BME280;8445;51.270;9.434;2023-01-28T07:31:51;100630.69;;;0.96;71.13
16664;BME280;8445;51.270;9.434;2023-01-28T07:34:17;100628.84;;;1.01;71.11
16664;BME280;8445;51.270;9.434;2023-01-28T07:36:42;100634.88;;;1.05;71.01
16664;BME280;8445;51.270;9.434;2023-01-28T07:39:08;100637.41;;;1.10;70.85
16664;BME280;8445;51.270;9.434;2023-01-28T07:41:33;100633.00;;;1.15;70.32
16664;BME280;8445;51.270;9.434;2023-01-28T07:44:04;100636.34;;;1.20;70.92
16664;BME280;8445;51.270;9.434;2023-01-28T07:46:29;100621.53;;;1.22;70.74
16664;BME280;8445;51.270;9.434;2023-01-28T07:48:55;100617.16;;;1.26;71.24
16664;BME280;8445;51.270;9.434;2023-01-28T07:51:20;100615.31;;;1.31;70.93
16664;BME280;8445;51.270;9.434;2023-01-28T07:53:45;100632.53;;;1.40;70.97
16664;BME280;8445;51.270;9.434;2023-01-28T07:56:11;100633.38;;;1.43;70.82
16664;BME280;8445;51.270;9.434;2023-01-28T07:58:36;100619.34;;;1.49;71.15
16664;BME280;8445;51.270;9.434;2023-01-28T08:01:03;100634.94;;;1.52;70.69
16664;BME280;8445;51.270;9.434;2023-01-28T08:03:29;100625.38;;;1.51;71.00
16664;BME280;8445;51.270;9.434;2023-01-28T08:05:55;100636.75;;;1.47;70.11
16664;BME280;8445;51.270;9.434;2023-01-28T08:08:22;100636.75;;;1.47;70.75
16664;BME280;8445;51.270;9.434;2023-01-28T08:10:48;100641.97;;;1.47;70.27
16664;BME280;8445;51.270;9.434;2023-01-28T08:13:15;100641.97;;;1.47;70.63
16664;BME280;8445;51.270;9.434;2023-01-28T08:15:42;100634.94;;;1.52;71.06
16664;BME280;8445;51.270;9.434;2023-01-28T08:18:09;100645.25;;;1.58;70.54
16664;BME280;8445;51.270;9.434;2023-01-28T08:20:38;100644.31;;;1.62;71.00
16664;BME280;8445;51.270;9.434;2023-01-28T08:25:32;100643.88;;;1.84;70.93
16664;BME280;8445;51.270;9.434;2023-01-28T08:28:01;100641.16;;;1.90;70.87
16664;BME280;8445;51.270;9.434;2023-01-28T08:30:27;100642.75;;;1.98;71.02
16664;BME280;8445;51.270;9.434;2023-01-28T08:32:57;100643.41;;;2.07;70.39
16664;BME280;8445;51.270;9.434;2023-01-28T08:35:23;100650.28;;;2.13;70.34
16664;BME280;8445;51.270;9.434;2023-01-28T08:37:49;100644.19;;;2.14;71.04
16664;BME280;8445;51.270;9.434;2023-01-28T08:40:14;100650.13;;;2.21;70.18
16664;BME280;8445;51.270;9.434;2023-01-28T08:42:46;100649.22;;;2.24;71.22
16664;BME280;8445;51.270;9.434;2023-01-28T08:45:12;100654.38;;;2.27;70.58
16664;BME280;8445;51.270;9.434;2023-01-28T08:47:47;100652.66;;;2.26;70.24
16664;BME280;8445;51.270;9.434;2023-01-28T08:50:12;100653.38;;;2.32;70.91
16664;BME280;8445;51.270;9.434;2023-01-28T08:52:38;100649.81;;;2.36;71.26
16664;BME280;8445;51.270;9.434;2023-01-28T08:55:03;100649.09;;;2.30;70.44
16664;BME280;8445;51.270;9.434;2023-01-28T08:57:29;100649.03;;;2.33;70.53
16664;BME280;8445;51.270;9.434;2023-01-28T08:59:54;100642.03;;;2.33;70.36
16664;BME280;8445;51.270;9.434;2023-01-28T09:02:20;100646.28;;;2.37;70.49
16664;BME280;8445;51.270;9.434;2023-01-28T09:04:45;100644.56;;;2.36;70.56
16664;BME280;8445;51.270;9.434;2023-01-28T09:07:10;100660.06;;;2.44;70.46
16664;BME280;8445;51.270;9.434;2023-01-28T09:09:36;100666.94;;;2.50;70.31
16664;BME280;8445;51.270;9.434;2023-01-28T09:12:01;100684.41;;;2.46;70.33
16664;BME280;8445;51.270;9.434;2023-01-28T09:14:27;100682.63;;;2.48;70.66
16664;BME280;8445;51.270;9.434;2023-01-28T09:16:52;100686.09;;;2.49;70.21
16664;BME280;8445;51.270;9.434;2023-01-28T09:19:18;100694.03;;;2.44;69.14
16664;BME280;8445;51.270;9.434;2023-01-28T09:21:43;100694.91;;;2.43;69.99
16664;BME280;8445;51.270;9.434;2023-01-28T09:24:12;100702.69;;;2.46;70.53
16664;BME280;8445;51.270;9.434;2023-01-28T09:26:37;100712.94;;;2.56;70.45
16664;BME280;8445;51.270;9.434;2023-01-28T09:29:03;100702.50;;;2.56;70.09
16664;BME280;8445;51.270;9.434;2023-01-28T09:31:28;100702.50;;;2.56;69.89
16664;BME280;8445;51.270;9.434;2023-01-28T09:33:54;100714.59;;;2.60;69.80
16664;BME280;8445;51.270;9.434;2023-01-28T09:36:22;100712.06;;;2.57;69.42
16664;BME280;8445;51.270;9.434;2023-01-28T09:38:47;100716.31;;;2.62;70.23
16664;BME280;8445;51.270;9.434;2023-01-28T09:41:44;100733.59;;;2.68;67.83
16664;BME280;8445;51.270;9.434;2023-01-28T09:47:27;100730.66;;;2.82;69.61
16664;BME280;8445;51.270;9.434;2023-01-28T09:49:57;100731.47;;;2.86;69.57
16664;BME280;8445;51.270;9.434;2023-01-28T09:52:25;100726.31;;;2.83;69.39
16664;BME280;8445;51.270;9.434;2023-01-28T09:54:55;100729.00;;;2.78;68.88
16664;BME280;8445;51.270;9.434;2023-01-28T09:57:25;100714.34;;;2.72;69.35
16664;BME280;8445;51.270;9.434;2023-01-28T09:59:56;100726.56;;;2.70;69.42
16664;BME280;8445;51.270;9.434;2023-01-28T10:05:15;100722.13;;;2.74;67.68
16664;BME280;8445;51.270;9.434;2023-01-28T10:10:16;100723.56;;;2.48;67.57
16664;BME280;8445;51.270;9.434;2023-01-28T10:18:54;100737.97;;;2.24;68.47
16664;BME280;8445;51.270;9.434;2023-01-28T10:21:26;100736.44;;;2.13;67.98
16664;BME280;8445;51.270;9.434;2023-01-28T10:26:39;100735.59;;;2.11;68.24
16664;BME280;8445;51.270;9.434;2023-01-28T10:29:20;100743.25;;;2.20;67.41
16664;BME280;8445;51.270;9.434;2023-01-28T10:32:03;100733.72;;;2.18;67.78
16664;BME280;8445;51.270;9.434;2023-01-28T10:34:30;100734.53;;;2.21;68.37
16664;BME280;8445;51.270;9.434;2023-01-28T10:36:56;100731.69;;;2.34;68.67
16664;BME280;8445;51.270;9.434;2023-01-28T10:39:24;100731.47;;;2.45;68.93
16664;BME280;8445;51.270;9.434;2023-01-28T10:41:51;100726.19;;;2.48;66.93
16664;BME280;8445;51.270;9.434;2023-01-28T10:44:29;100731.00;;;2.66;66.39
16664;BME280;8445;51.270;9.434;2023-01-28T10:46:58;100736.66;;;2.87;68.42
16664;BME280;8445;51.270;9.434;2023-01-28T10:49:27;100727.53;;;3.05;67.79
16664;BME280;8445;51.270;9.434;2023-01-28T10:51:53;100729.50;;;3.33;69.65
16664;BME280;8445;51.270;9.434;2023-01-28T10:54:26;100732.22;;;3.65;69.61
16664;BME280;8445;51.270;9.434;2023-01-28T10:56:56;100724.38;;;3.65;67.00
16664;BME280;8445;51.270;9.434;2023-01-28T10:59:27;100727.97;;;3.59;67.70
16664;BME280;8445;51.270;9.434;2023-01-28T11:01:57;100730.03;;;3.48;68.65
16664;BME280;8445;51.270;9.434;2023-01-28T11:04:29;100728.56;;;3.36;67.51
16664;BME280;8445;51.270;9.434;2023-01-28T11:06:58;100731.38;;;3.26;67.94
16664;BME280;8445;51.270;9.434;2023-01-28T11:09:32;100727.44;;;3.10;67.59
16664;BME280;8445;51.270;9.434;2023-01-28T11:12:10;100735.75;;;2.90;66.58
16664;BME280;8445;51.270;9.434;2023-01-28T11:14:36;100727.47;;;2.69;66.74
16664;BME280;8445;51.270;9.434;2023-01-28T11:17:02;100731.28;;;2.52;66.60
16664;BME280;8445;51.270;9.434;2023-01-28T11:19:34;100727.13;;;2.44;66.35
16664;BME280;8445;51.270;9.434;2023-01-28T11:22:03;100721.72;;;2.51;67.41
16664;BME280;8445;51.270;9.434;2023-01-28T11:24:30;100713.94;;;2.50;66.79
16664;BME280;8445;51.270;9.434;2023-01-28T11:27:10;100715.63;;;2.52;67.29
16664;BME280;8445;51.270;9.434;2023-01-28T11:29:38;100711.03;;;2.64;68.03
16664;BME280;8445;51.270;9.434;2023-01-28T11:32:19;100712.56;;;2.74;64.85
16664;BME280;8445;51.270;9.434;2023-01-28T11:41:41;100702.78;;;3.20;67.12
16664;BME280;8445;51.270;9.434;2023-01-28T11:46:49;100691.91;;;3.37;66.56
16664;BME280;8445;51.270;9.434;2023-01-28T11:58:12;100703.28;;;3.35;64.17
16664;BME280;8445;51.270;9.434;2023-01-28T12:01:00;100695.56;;;3.30;66.40
16664;BME280;8445;51.270;9.434;2023-01-28T12:09:44;100687.94;;;3.21;65.36
16664;BME280;8445;51.270;9.434;2023-01-28T12:12:21;100716.56;;;3.27;65.99
16664;BME280;8445;51.270;9.434;2023-01-28T12:15:02;100706.88;;;3.32;65.57
16664;BME280;8445;51.270;9.434;2023-01-28T12:23:08;100706.81;;;3.34;65.15
16664;BME280;8445;51.270;9.434;2023-01-28T12:26:15;100711.56;;;3.18;61.88
16664;BME280;8445;51.270;9.434;2023-01-28T12:31:55;100699.16;;;2.90;61.72
16664;BME280;8445;51.270;9.434;2023-01-28T12:37:40;100704.44;;;2.87;64.71
16664;BME280;8445;51.270;9.434;2023-01-28T12:46:10;100705.09;;;2.95;64.35
16664;BME280;8445;51.270;9.434;2023-01-28T12:48:48;100712.34;;;2.84;64.22
16664;BME280;8445;51.270;9.434;2023-01-28T12:51:20;100709.13;;;2.72;63.44
16664;BME280;8445;51.270;9.434;2023-01-28T12:56:39;100689.53;;;2.51;65.15
16664;BME280;8445;51.270;9.434;2023-01-28T12:59:26;100702.56;;;2.52;64.01
16664;BME280;8445;51.270;9.434;2023-01-28T13:04:34;100697.88;;;2.28;65.20
16664;BME280;8445;51.270;9.434;2023-01-28T13:07:10;100682.72;;;2.44;65.45
16664;BME280;8445;51.270;9.434;2023-01-28T13:09:42;100686.94;;;2.51;64.74
16664;BME280;8445;51.270;9.434;2023-01-28T13:12:10;100688.41;;;2.63;65.13
16664;BME280;8445;51.270;9.434;2023-01-28T13:14:36;100679.72;;;2.62;64.76
16664;BME280;8445;51.270;9.434;2023-01-28T13:17:31;100679.88;;;2.55;64.05
16664;BME280;8445;51.270;9.434;2023-01-28T13:19:58;100668.66;;;2.51;64.07
16664;BME280;8445;51.270;9.434;2023-01-28T13:22:33;100662.47;;;2.54;64.85
16664;BME280;8445;51.270;9.434;2023-01-28T13:25:32;100667.44;;;2.66;64.00
16664;BME280;8445;51.270;9.434;2023-01-28T13:28:00;100676.09;;;2.68;63.75
16664;BME280;8445;51.270;9.434;2023-01-28T13:30:32;100671.78;;;2.65;64.47
16664;BME280;8445;51.270;9.434;2023-01-28T13:33:02;100673.59;;;2.63;64.86
16664;BME280;8445;51.270;9.434;2023-01-28T13:35:36;100676.22;;;2.63;63.15
16664;BME280;8445;51.270;9.434;2023-01-28T13:38:17;100677.19;;;2.59;64.14
16664;BME280;8445;51.270;9.434;2023-01-28T13:40:54;100680.19;;;2.41;61.95
16664;BME280;8445;51.270;9.434;2023-01-28T13:43:26;100686.16;;;2.46;63.03
16664;BME280;8445;51.270;9.434;2023-01-28T13:46:05;100661.84;;;2.42;63.08
16664;BME280;8445;51.270;9.434;2023-01-28T13:51:14;100660.91;;;2.46;64.78
16664;BME280;8445;51.270;9.434;2023-01-28T13:56:40;100649.31;;;2.96;65.37
16664;BME280;8445;51.270;9.434;2023-01-28T14:04:33;100634.38;;;3.01;62.74
16664;BME280;8445;51.270;9.434;2023-01-28T14:15:20;100617.88;;;2.99;62.58
16664;BME280;8445;51.270;9.434;2023-01-28T14:17:50;100616.00;;;3.04;64.42
16664;BME280;8445;51.270;9.434;2023-01-28T14:20:22;100609.22;;;2.97;64.43
16664;BME280;8445;51.270;9.434;2023-01-28T14:22:50;100615.59;;;2.85;63.85
16664;BME280;8445;51.270;9.434;2023-01-28T14:28:23;100640.97;;;2.81;64.14
16664;BME280;8445;51.270;9.434;2023-01-28T14:30:55;100640.06;;;2.83;63.85
16664;BME280;8445;51.270;9.434;2023-01-28T14:33:24;100639.19;;;2.84;64.07
16664;BME280;8445;51.270;9.434;2023-01-28T14:35:50;100639.31;;;2.77;63.97
16664;BME280;8445;51.270;9.434;2023-01-28T14:38:20;100630.88;;;2.66;63.83
16664;BME280;8445;51.270;9.434;2023-01-28T14:40:52;100643.56;;;2.42;62.91
16664;BME280;8445;51.270;9.434;2023-01-28T14:43:24;100656.28;;;2.18;62.21
16664;BME280;8445;51.270;9.434;2023-01-28T14:46:19;100642.41;;;2.16;63.17
16664;BME280;8445;51.270;9.434;2023-01-28T14:48:50;100645.13;;;2.10;63.75
16664;BME280;8445;51.270;9.434;2023-01-28T14:51:45;100636.66;;;1.99;63.73
16664;BME280;8445;51.270;9.434;2023-01-28T14:57:12;100651.59;;;1.90;63.80
16664;BME280;8445;51.270;9.434;2023-01-28T14:59:56;100646.44;;;1.87;64.17
16664;BME280;8445;51.270;9.434;2023-01-28T15:02:30;100655.09;;;1.91;63.95
16664;BME280;8445;51.270;9.434;2023-01-28T15:05:10;100663.75;;;1.91;63.21
16664;BME280;8445;51.270;9.434;2023-01-28T15:07:43;100665.66;;;1.83;63.55
16664;BME280;8445;51.270;9.434;2023-01-28T15:15:34;100665.41;;;1.48;63.91
16664;BME280;8445;51.270;9.434;2023-01-28T15:18:04;100665.66;;;1.36;63.54
16664;BME280;8445;51.270;9.434;2023-01-28T15:20:32;100657.97;;;1.25;64.13
16664;BME280;8445;51.270;9.434;2023-01-28T15:22:59;100666.88;;;1.15;63.85
16664;BME280;8445;51.270;9.434;2023-01-28T15:25:28;100671.34;;;1.07;63.92